Time;durP1;ratioP1;P1;durP2;ratioP2;P2;SDS_P1;SDS_P2;PMS_P1;PMS_P2;Temp;Humidity;BMP_temperature;BMP_pressure;BME280_temperature;BME280_humidity;BME280_pressure;Samples;Min_cycle;Max_cycle;Signal;HPM_P1;HPM_P2
2024/02/07 00:00:26;;;;;;;4.95;0.43;;;6.80;99.90;;;;;;5044193;28;20047;-73
2024/02/07 00:02:52;;;;;;;5.30;0.65;;;6.80;99.90;;;;;;5040982;28;20528;-72
2024/02/07 00:05:17;;;;;;;5.85;0.68;;;6.80;99.90;;;;;;5039719;28;20551;-74
2024/02/07 00:07:44;;;;;;;6.20;0.68;;;6.70;99.90;;;;;;5041131;28;20041;-75
2024/02/07 00:10:11;;;;;;;5.63;0.82;;;6.70;99.90;;;;;;5041097;28;20526;-73
2024/02/07 00:12:36;;;;;;;2.30;0.40;;;6.70;99.90;;;;;;5043593;28;20474;-74
2024/02/07 00:15:02;;;;;;;4.63;0.60;;;6.70;99.90;;;;;;5041096;28;20065;-73
2024/02/07 00:17:28;;;;;;;10.43;1.23;;;6.60;99.90;;;;;;5045407;28;20056;-72
2024/02/07 00:19:53;;;;;;;6.30;0.40;;;6.60;99.90;;;;;;5043092;28;20029;-74
2024/02/07 00:22:19;;;;;;;6.47;0.77;;;6.60;99.90;;;;;;5040744;28;20095;-72
2024/02/07 00:24:44;;;;;;;7.20;1.42;;;6.60;99.90;;;;;;5038991;28;20051;-75
2024/02/07 00:27:10;;;;;;;8.02;0.80;;;6.50;99.90;;;;;;5042354;28;20045;-76
2024/02/07 00:29:36;;;;;;;7.40;1.13;;;6.50;99.90;;;;;;5041568;28;20049;-73
2024/02/07 00:32:02;;;;;;;4.28;0.45;;;6.50;99.90;;;;;;5041253;28;20033;-77
2024/02/07 00:34:27;;;;;;;8.05;0.98;;;6.50;99.90;;;;;;5038319;28;20029;-73
2024/02/07 00:36:53;;;;;;;3.97;0.50;;;6.40;99.90;;;;;;5043501;28;20450;-74
2024/02/07 00:39:18;;;;;;;11.65;1.05;;;6.40;99.90;;;;;;5036832;28;20481;-72
2024/02/07 00:41:44;;;;;;;5.72;0.60;;;6.40;99.90;;;;;;5038628;28;20096;-73
2024/02/07 00:44:10;;;;;;;11.57;1.50;;;6.40;99.90;;;;;;5041711;28;20045;-74
2024/02/07 00:46:35;;;;;;;3.75;0.40;;;6.40;99.90;;;;;;5049496;28;20037;-74
2024/02/07 00:49:03;;;;;;;3.85;0.43;;;6.30;99.90;;;;;;5043900;28;20021;-74
2024/02/07 00:51:32;;;;;;;9.50;1.10;;;6.30;99.90;;;;;;5041284;28;20021;-73
2024/02/07 00:53:57;;;;;;;10.30;1.23;;;6.20;99.90;;;;;;5046133;28;20037;-73
2024/02/07 00:56:23;;;;;;;2.78;0.77;;;6.20;99.90;;;;;;5037759;28;20158;-72
2024/02/07 00:58:48;;;;;;;9.20;0.88;;;6.20;99.90;;;;;;5046871;28;20722;-72
2024/02/07 01:01:15;;;;;;;3.10;0.50;;;6.10;99.90;;;;;;5050536;28;20056;-73
2024/02/07 01:03:40;;;;;;;4.57;0.30;;;6.10;99.90;;;;;;5053957;28;20040;-74
2024/02/07 01:06:06;;;;;;;5.18;0.50;;;6.10;99.90;;;;;;5048706;28;20041;-78
2024/02/07 01:08:32;;;;;;;3.55;0.38;;;6.10;99.90;;;;;;5041283;28;20027;-74
2024/02/07 01:10:57;;;;;;;8.00;1.98;;;6.00;99.90;;;;;;5048376;28;20453;-73
2024/02/07 01:13:23;;;;;;;4.28;0.40;;;6.00;99.90;;;;;;5037340;28;20033;-73
2024/02/07 01:15:48;;;;;;;4.72;0.45;;;6.00;99.90;;;;;;5047577;28;20094;-76
2024/02/07 01:18:14;;;;;;;3.22;0.40;;;6.00;99.90;;;;;;5049616;28;20033;-73
2024/02/07 01:20:39;;;;;;;6.50;1.40;;;6.00;99.90;;;;;;5049380;28;20044;-73
2024/02/07 01:23:08;;;;;;;4.82;0.50;;;6.00;99.90;;;;;;5049789;28;20041;-74
2024/02/07 01:25:33;;;;;;;4.88;0.40;;;6.00;99.90;;;;;;5027515;28;20074;-74
2024/02/07 01:27:59;;;;;;;4.50;0.47;;;6.00;99.90;;;;;;5044248;28;20037;-78
2024/02/07 01:30:24;;;;;;;1.90;0.35;;;6.00;99.90;;;;;;5038852;28;20106;-73
2024/02/07 01:32:50;;;;;;;9.38;0.77;;;6.00;99.90;;;;;;5044343;28;20098;-74
2024/02/07 01:35:15;;;;;;;4.53;0.25;;;6.10;99.90;;;;;;5043413;28;20053;-77
2024/02/07 01:37:42;;;;;;;4.53;0.30;;;6.10;99.90;;;;;;5044962;28;20125;-74
2024/02/07 01:40:11;;;;;;;5.53;1.27;;;6.10;99.90;;;;;;5040009;28;20571;-76
2024/02/07 01:42:37;;;;;;;4.80;0.60;;;6.10;99.90;;;;;;5044792;28;20575;-73
2024/02/07 01:45:32;;;;;;;7.40;0.45;;;6.10;99.90;;;;;;5042761;28;20044;-72
2024/02/07 01:47:58;;;;;;;6.10;0.50;;;6.10;99.90;;;;;;5049361;28;20043;-74
2024/02/07 01:50:24;;;;;;;10.27;1.42;;;6.10;99.90;;;;;;5045241;28;20055;-74
2024/02/07 01:52:53;;;;;;;1.98;0.32;;;6.10;99.90;;;;;;5044636;28;20482;-73
2024/02/07 01:55:20;;;;;;;3.05;0.40;;;6.00;99.90;;;;;;5045961;28;20041;-73
2024/02/07 01:57:47;;;;;;;5.53;0.20;;;5.90;99.90;;;;;;5048442;28;20036;-74
2024/02/07 02:00:13;;;;;;;8.65;0.80;;;5.90;99.90;;;;;;5041751;28;20045;-74
2024/02/07 02:02:39;;;;;;;1.33;0.32;;;5.80;99.90;;;;;;5046973;28;20044;-72
2024/02/07 02:05:05;;;;;;;4.38;1.02;;;5.80;99.90;;;;;;5045169;28;20059;-74
2024/02/07 02:07:31;;;;;;;4.28;0.47;;;5.70;99.90;;;;;;5051255;28;20047;-74
2024/02/07 02:09:57;;;;;;;3.38;0.50;;;5.70;99.90;;;;;;5049392;28;20123;-74
2024/02/07 02:12:22;;;;;;;5.60;0.88;;;5.70;99.90;;;;;;5050139;28;20058;-73
2024/02/07 02:14:49;;;;;;;5.13;0.70;;;5.70;99.90;;;;;;5052105;28;20499;-74
2024/02/07 02:17:14;;;;;;;5.03;0.55;;;5.70;99.90;;;;;;5059903;28;20045;-73
2024/02/07 02:19:40;;;;;;;7.40;0.52;;;5.70;99.90;;;;;;5067910;28;20413;-75
2024/02/07 02:22:46;;;;;;;3.40;0.38;;;5.70;99.90;;;;;;5050710;28;20332;-76
2024/02/07 02:25:34;;;;;;;9.25;1.05;;;5.60;99.90;;;;;;5065241;28;20098;-76
2024/02/07 02:28:18;;;;;;;2.40;0.40;;;5.60;99.90;;;;;;5038314;28;20529;-72
2024/02/07 02:30:52;;;;;;;3.63;1.13;;;5.60;99.90;;;;;;5057115;28;20036;-73
2024/02/07 02:33:20;;;;;;;8.07;0.43;;;5.50;99.90;;;;;;5045915;28;20049;-75
2024/02/07 02:35:47;;;;;;;4.63;0.55;;;5.40;99.90;;;;;;5039122;28;20068;-73
2024/02/07 02:38:13;;;;;;;1.75;0.20;;;5.40;99.90;;;;;;5048671;28;20029;-73
2024/02/07 02:40:39;;;;;;;3.83;0.50;;;5.40;99.90;;;;;;5020906;28;20025;-73
2024/02/07 02:43:05;;;;;;;5.30;0.50;;;5.30;99.90;;;;;;5033096;28;20028;-76
2024/02/07 02:45:31;;;;;;;7.30;0.70;;;5.20;99.90;;;;;;5032044;28;20660;-74
2024/02/07 02:47:58;;;;;;;3.90;0.35;;;5.20;99.90;;;;;;5043653;28;20052;-73
2024/02/07 02:50:26;;;;;;;3.13;0.60;;;5.20;99.90;;;;;;5044286;28;20132;-75
2024/02/07 02:52:52;;;;;;;2.53;0.30;;;5.10;99.90;;;;;;5038801;28;20048;-76
2024/02/07 02:55:18;;;;;;;4.03;0.57;;;5.10;99.90;;;;;;5042817;28;20124;-75
2024/02/07 02:57:45;;;;;;;6.70;0.60;;;5.10;99.90;;;;;;5046834;28;20125;-75
2024/02/07 03:00:14;;;;;;;8.65;1.60;;;5.10;99.90;;;;;;5039573;28;20068;-73
2024/02/07 03:02:43;;;;;;;4.95;0.63;;;5.10;99.90;;;;;;5048979;28;20033;-73
2024/02/07 03:05:26;;;;;;;2.28;0.82;;;5.10;99.90;;;;;;5042844;28;20128;-75
2024/02/07 03:08:04;;;;;;;8.02;1.00;;;5.10;99.90;;;;;;5034620;28;20040;-75
2024/02/07 03:10:30;;;;;;;3.90;0.73;;;5.10;99.90;;;;;;5039951;28;20083;-73
2024/02/07 03:12:56;;;;;;;3.95;0.35;;;5.10;99.90;;;;;;5038624;28;20040;-73
2024/02/07 03:15:22;;;;;;;3.83;0.45;;;5.10;99.90;;;;;;5038615;28;20567;-73
2024/02/07 03:17:48;;;;;;;6.57;0.85;;;5.10;99.90;;;;;;5039119;28;20072;-73
2024/02/07 03:20:14;;;;;;;10.77;1.20;;;5.10;99.90;;;;;;5039167;28;20575;-75
2024/02/07 03:22:40;;;;;;;4.18;0.88;;;5.10;99.90;;;;;;5047166;28;20026;-73
2024/02/07 03:25:07;;;;;;;3.70;0.60;;;5.20;99.90;;;;;;5038733;28;20044;-73
2024/02/07 03:27:34;;;;;;;4.32;0.38;;;5.20;99.90;;;;;;5027392;28;20418;-74
2024/02/07 03:30:00;;;;;;;4.97;0.40;;;5.20;99.90;;;;;;5041451;28;20033;-74
2024/02/07 03:32:25;;;;;;;7.15;0.40;;;5.20;99.90;;;;;;5036827;28;20048;-73
2024/02/07 03:34:54;;;;;;;4.95;0.60;;;5.20;99.90;;;;;;5045412;28;20033;-73
2024/02/07 03:37:19;;;;;;;6.85;0.65;;;5.10;99.90;;;;;;5021155;28;20202;-70
2024/02/07 03:39:45;;;;;;;7.38;1.23;;;5.10;99.90;;;;;;5027400;28;20120;-73
2024/02/07 03:42:10;;;;;;;2.97;0.43;;;5.10;99.90;;;;;;5032554;28;20065;-74
2024/02/07 03:44:39;;;;;;;2.72;0.52;;;5.10;99.90;;;;;;5030471;28;20044;-74
2024/02/07 03:47:04;;;;;;;13.27;1.20;;;5.10;99.90;;;;;;5037317;28;20445;-76
2024/02/07 03:49:30;;;;;;;1.88;0.95;;;5.10;99.90;;;;;;5027338;28;20037;-73
2024/02/07 03:51:56;;;;;;;4.40;0.45;;;5.10;99.90;;;;;;5044121;28;20049;-75
2024/02/07 03:54:21;;;;;;;7.32;0.75;;;5.10;99.90;;;;;;5029473;28;20854;-73
2024/02/07 03:56:47;;;;;;;4.65;1.08;;;5.20;99.90;;;;;;5044020;28;20043;-76
2024/02/07 03:59:12;;;;;;;3.55;0.50;;;5.20;99.90;;;;;;5035907;28;20421;-74
2024/02/07 04:01:38;;;;;;;5.85;0.52;;;5.20;99.90;;;;;;5037336;28;20091;-73
2024/02/07 04:04:08;;;;;;;7.97;1.67;;;5.30;99.90;;;;;;5043272;28;20121;-73
2024/02/07 04:06:34;;;;;;;6.00;0.60;;;5.30;99.90;;;;;;5050712;28;20029;-74
2024/02/07 04:09:03;;;;;;;6.05;0.68;;;5.30;99.90;;;;;;5041906;28;20033;-76
2024/02/07 05:16:33;;;;;;;3.00;0.43;;;5.30;99.90;;;;;;5056920;28;20062;-73
2024/02/07 05:18:59;;;;;;;5.72;1.15;;;5.30;99.90;;;;;;5058366;28;20091;-73
2024/02/07 05:21:24;;;;;;;5.93;1.17;;;5.30;99.90;;;;;;5043849;28;21044;-74
2024/02/07 05:23:50;;;;;;;5.70;0.60;;;5.30;99.90;;;;;;5058304;28;20028;-73
2024/02/07 05:26:17;;;;;;;9.05;0.68;;;5.30;99.90;;;;;;5048187;28;20055;-74
2024/02/07 05:28:43;;;;;;;5.22;1.20;;;5.30;99.90;;;;;;5048296;28;20039;-73
2024/02/07 05:31:08;;;;;;;4.32;0.52;;;5.30;99.90;;;;;;5060978;28;20032;-74
2024/02/07 05:33:34;;;;;;;6.10;1.00;;;5.30;99.90;;;;;;5066326;28;20032;-74
2024/02/07 05:35:59;;;;;;;6.97;1.05;;;5.30;99.90;;;;;;5045469;28;20086;-73
2024/02/07 05:38:25;;;;;;;8.98;1.45;;;5.30;99.90;;;;;;5049431;28;20608;-73
2024/02/07 05:40:50;;;;;;;7.90;0.70;;;5.30;99.90;;;;;;5051816;28;20086;-77
2024/02/07 05:43:16;;;;;;;7.22;1.55;;;5.30;99.90;;;;;;5048586;28;20032;-75
2024/02/07 05:45:41;;;;;;;2.58;0.47;;;5.30;99.90;;;;;;5059584;28;20033;-74
2024/02/07 05:48:07;;;;;;;8.68;0.60;;;5.30;99.90;;;;;;5049591;28;20032;-74
2024/02/07 05:50:34;;;;;;;13.55;1.75;;;5.30;99.90;;;;;;5068164;28;20063;-74
2024/02/07 05:53:00;;;;;;;5.68;0.70;;;5.30;99.90;;;;;;5052486;28;20033;-76
2024/02/07 05:55:25;;;;;;;4.43;0.30;;;5.30;99.90;;;;;;5063803;28;20044;-73
2024/02/07 05:57:51;;;;;;;6.18;0.75;;;5.20;99.90;;;;;;5060513;28;20127;-74
2024/02/07 06:00:17;;;;;;;11.05;1.20;;;5.20;99.90;;;;;;5050388;28;20044;-73
2024/02/07 06:02:43;;;;;;;8.25;0.57;;;5.20;99.90;;;;;;5050081;28;20493;-74
2024/02/07 06:05:10;;;;;;;6.60;0.60;;;5.20;99.90;;;;;;5060259;28;20044;-74
2024/02/07 06:07:36;;;;;;;9.95;0.80;;;5.20;99.90;;;;;;5046768;28;20792;-74
2024/02/07 06:10:01;;;;;;;3.22;0.45;;;5.20;99.90;;;;;;5059298;28;20109;-75
2024/02/07 06:12:28;;;;;;;5.97;1.35;;;5.20;99.90;;;;;;5059792;28;20485;-73
2024/02/07 06:14:58;;;;;;;5.97;0.75;;;5.20;99.90;;;;;;5050711;28;20045;-77
2024/02/07 06:17:25;;;;;;;5.07;0.93;;;5.20;99.90;;;;;;5063764;28;20087;-76
2024/02/07 06:19:52;;;;;;;5.65;1.15;;;5.20;99.90;;;;;;5064650;28;20124;-73
2024/02/07 06:22:17;;;;;;;11.07;0.82;;;5.20;99.90;;;;;;5047199;28;20032;-74
2024/02/07 06:24:43;;;;;;;4.68;0.80;;;5.10;99.90;;;;;;5059568;28;20029;-74
2024/02/07 06:27:08;;;;;;;11.27;1.42;;;5.20;99.90;;;;;;5060973;28;20100;-74
2024/02/07 06:29:34;;;;;;;7.13;1.60;;;5.20;99.90;;;;;;5063367;28;20126;-74
2024/02/07 06:31:59;;;;;;;5.43;0.50;;;5.20;99.90;;;;;;5047770;28;20036;-72
2024/02/07 06:34:25;;;;;;;6.22;1.35;;;5.20;99.90;;;;;;5060136;28;20564;-73
2024/02/07 06:36:51;;;;;;;11.65;0.80;;;5.20;99.90;;;;;;5051417;28;20449;-75
2024/02/07 06:39:16;;;;;;;5.05;0.70;;;5.20;99.90;;;;;;5058369;28;20029;-73
2024/02/07 06:41:42;;;;;;;3.08;0.80;;;5.20;99.90;;;;;;5059960;28;20029;-72
2024/02/07 06:44:07;;;;;;;4.50;0.75;;;5.30;99.90;;;;;;5049592;28;20123;-74
2024/02/07 06:46:39;;;;;;;6.18;0.63;;;5.30;99.90;;;;;;5043760;28;20087;-72
2024/02/07 06:49:05;;;;;;;8.30;1.17;;;5.30;99.90;;;;;;5047854;28;20456;-72
2024/02/07 06:51:30;;;;;;;3.90;0.63;;;5.20;99.90;;;;;;5056625;28;20033;-72
2024/02/07 06:53:56;;;;;;;7.90;1.67;;;5.20;99.90;;;;;;5059987;28;20044;-75
2024/02/07 06:56:21;;;;;;;9.82;1.27;;;5.20;99.90;;;;;;5048393;28;20120;-71
2024/02/07 06:58:47;;;;;;;5.78;0.52;;;5.20;99.90;;;;;;5049902;28;20036;-73
2024/02/07 07:01:13;;;;;;;6.53;0.63;;;5.10;99.90;;;;;;5057243;28;20087;-72
2024/02/07 07:03:39;;;;;;;9.43;0.85;;;5.10;99.90;;;;;;5048086;28;20036;-72
2024/02/07 07:06:04;;;;;;;3.50;0.57;;;5.10;99.90;;;;;;5061781;28;20039;-75
2024/02/07 07:08:30;;;;;;;5.05;1.08;;;5.10;99.90;;;;;;5064256;28;20449;-74
2024/02/07 07:10:55;;;;;;;7.97;0.98;;;5.10;99.90;;;;;;5070849;28;20047;-74
2024/02/07 07:13:21;;;;;;;6.20;1.02;;;5.10;99.90;;;;;;5062208;28;20112;-72
2024/02/07 07:15:47;;;;;;;12.55;2.28;;;5.10;99.90;;;;;;5054916;28;20462;-75
2024/02/07 07:18:12;;;;;;;5.65;0.80;;;5.10;99.90;;;;;;5059594;28;20033;-73
2024/02/07 07:20:38;;;;;;;3.85;0.60;;;5.10;99.90;;;;;;5064395;28;20035;-74
2024/02/07 07:23:03;;;;;;;1.63;0.55;;;5.10;99.90;;;;;;5059324;28;20040;-73
2024/02/07 07:25:29;;;;;;;5.25;1.05;;;5.20;99.90;;;;;;5061380;28;20040;-74
2024/02/07 07:27:55;;;;;;;4.97;0.65;;;5.10;99.90;;;;;;5059568;28;20041;-73
2024/02/07 07:30:21;;;;;;;7.60;0.70;;;5.10;99.90;;;;;;5046245;28;20033;-73
2024/02/07 07:32:47;;;;;;;6.47;0.40;;;5.20;99.90;;;;;;5059138;28;20038;-74
2024/02/07 07:35:13;;;;;;;10.82;0.85;;;5.10;99.90;;;;;;5055801;28;20037;-72
2024/02/07 07:37:38;;;;;;;8.70;1.95;;;5.20;99.90;;;;;;5043548;28;20033;-73
2024/02/07 07:40:05;;;;;;;6.60;1.33;;;5.20;99.90;;;;;;5039335;28;20040;-74
2024/02/07 07:42:30;;;;;;;6.47;0.90;;;5.20;99.90;;;;;;5060313;28;20060;-73
2024/02/07 07:44:56;;;;;;;6.85;0.90;;;5.20;99.90;;;;;;5047973;28;20033;-74
2024/02/07 07:47:21;;;;;;;7.07;1.00;;;5.20;99.90;;;;;;5055639;28;20118;-74
2024/02/07 07:49:47;;;;;;;5.57;0.70;;;5.30;99.90;;;;;;5039975;28;20102;-75
2024/02/07 07:52:12;;;;;;;8.25;1.00;;;5.20;99.90;;;;;;5061700;28;20064;-72
2024/02/07 07:54:38;;;;;;;8.43;1.80;;;5.30;99.90;;;;;;5042988;28;20033;-73
2024/02/07 07:57:07;;;;;;;5.03;1.30;;;5.30;99.90;;;;;;5058569;28;20029;-75
2024/02/07 07:59:33;;;;;;;4.22;1.02;;;5.30;99.90;;;;;;5053145;28;20037;-73
2024/02/07 08:02:00;;;;;;;6.88;1.25;;;5.30;99.90;;;;;;5061280;28;20409;-76
2024/02/07 08:04:26;;;;;;;3.83;0.80;;;5.30;99.90;;;;;;5060431;28;20035;-73
2024/02/07 08:06:52;;;;;;;4.55;1.17;;;5.30;99.90;;;;;;5057870;28;20044;-75
2024/02/07 08:09:18;;;;;;;3.63;0.85;;;5.30;99.90;;;;;;5044415;28;20036;-75
2024/02/07 08:11:44;;;;;;;9.93;1.80;;;5.30;99.90;;;;;;5049427;28;20025;-75
2024/02/07 08:14:09;;;;;;;3.50;1.25;;;5.30;99.90;;;;;;5066335;28;20045;-75
2024/02/07 08:16:35;;;;;;;4.22;1.30;;;5.30;99.90;;;;;;5059200;28;20070;-75
2024/02/07 08:19:01;;;;;;;6.45;1.60;;;5.40;99.90;;;;;;5060049;28;20525;-75
2024/02/07 08:21:26;;;;;;;5.32;0.85;;;5.40;99.90;;;;;;5041534;28;20529;-73
2024/02/07 08:23:52;;;;;;;8.23;1.20;;;5.40;99.90;;;;;;5058259;28;20394;-73
2024/02/07 08:26:17;;;;;;;13.90;1.23;;;5.40;99.90;;;;;;5058873;28;20409;-74
2024/02/07 08:28:43;;;;;;;9.63;2.35;;;5.40;99.90;;;;;;5058862;28;20040;-73
2024/02/07 08:31:11;;;;;;;7.32;0.95;;;5.40;99.90;;;;;;5048306;28;20043;-75
2024/02/07 08:33:37;;;;;;;3.97;0.82;;;5.50;99.90;;;;;;5059468;28;20078;-75
2024/02/07 08:36:03;;;;;;;8.75;1.63;;;5.40;99.90;;;;;;5044553;28;20040;-73
2024/02/07 08:38:28;;;;;;;5.72;1.00;;;5.50;99.90;;;;;;5037840;28;20440;-71
2024/02/07 08:40:54;;;;;;;16.65;1.85;;;5.50;99.90;;;;;;5046144;28;20068;-73
2024/02/07 08:43:21;;;;;;;5.32;1.35;;;5.50;99.90;;;;;;5051639;28;20081;-74
2024/02/07 08:45:46;;;;;;;13.50;0.90;;;5.50;99.90;;;;;;5057360;28;20032;-76
2024/02/07 08:48:12;;;;;;;7.93;0.80;;;5.50;99.90;;;;;;5058630;28;20106;-71
2024/02/07 08:50:37;;;;;;;8.32;1.13;;;5.60;99.90;;;;;;5066878;28;20049;-77
2024/02/07 08:53:03;;;;;;;12.43;2.00;;;5.60;99.90;;;;;;5061039;28;20104;-73
2024/02/07 08:55:29;;;;;;;11.60;1.88;;;5.60;99.90;;;;;;5043084;28;20493;-73
2024/02/07 08:57:54;;;;;;;9.45;1.17;;;5.70;99.90;;;;;;5049582;28;20040;-74
2024/02/07 09:00:20;;;;;;;8.75;1.67;;;5.70;99.90;;;;;;5040971;28;20029;-73
2024/02/07 09:02:49;;;;;;;7.07;1.95;;;5.80;99.90;;;;;;5053587;28;20509;-75
2024/02/07 09:05:16;;;;;;;15.63;1.90;;;5.70;99.90;;;;;;5043195;28;20028;-73
2024/02/07 09:07:41;;;;;;;12.10;2.72;;;5.80;99.90;;;;;;5042270;28;20413;-73
2024/02/07 09:10:07;;;;;;;5.43;0.98;;;5.90;99.90;;;;;;5058996;28;20043;-72
2024/02/07 09:12:33;;;;;;;9.95;1.95;;;5.90;99.90;;;;;;5039580;28;20448;-73
2024/02/07 09:14:59;;;;;;;14.60;1.90;;;6.00;99.90;;;;;;5046766;28;20100;-73
2024/02/07 09:17:25;;;;;;;11.10;1.02;;;6.10;99.90;;;;;;5058126;28;20028;-73
2024/02/07 09:19:50;;;;;;;11.27;1.30;;;6.10;99.90;;;;;;5047217;28;20090;-71
2024/02/07 09:22:16;;;;;;;10.80;1.45;;;6.10;99.90;;;;;;5047380;28;20032;-75
2024/02/07 09:24:42;;;;;;;9.80;1.67;;;6.20;99.90;;;;;;5042897;28;20378;-73
2024/02/07 09:27:08;;;;;;;22.05;2.13;;;6.20;99.90;;;;;;5049476;28;20072;-73
2024/02/07 09:29:33;;;;;;;9.98;1.52;;;6.30;99.90;;;;;;5051118;28;20067;-76
2024/02/07 09:31:59;;;;;;;6.78;1.23;;;6.30;99.90;;;;;;5063294;28;20074;-75
2024/02/07 09:34:24;;;;;;;12.40;1.75;;;6.30;99.90;;;;;;5070495;28;20047;-73
2024/02/07 09:36:50;;;;;;;11.43;1.27;;;6.30;99.90;;;;;;5038413;28;20590;-74
2024/02/07 09:39:19;;;;;;;11.70;1.55;;;6.30;99.90;;;;;;5061672;28;20044;-73
2024/02/07 09:41:46;;;;;;;11.32;1.67;;;6.30;99.90;;;;;;5041176;28;20040;-72
2024/02/07 09:44:16;;;;;;;14.40;1.63;;;6.30;99.90;;;;;;5060170;28;20503;-73
2024/02/07 09:46:45;;;;;;;13.88;1.52;;;6.30;99.90;;;;;;5047743;28;20025;-73
2024/02/07 09:49:13;;;;;;;8.38;1.35;;;6.30;99.90;;;;;;5060467;28;20538;-73
2024/02/07 09:51:40;;;;;;;12.20;1.80;;;6.30;99.90;;;;;;5052615;28;20039;-74
2024/02/07 09:54:11;;;;;;;7.60;1.42;;;6.30;99.90;;;;;;5041911;28;20041;-73
2024/02/07 09:56:38;;;;;;;12.05;2.40;;;6.30;99.90;;;;;;5050281;28;20061;-75
2024/02/07 09:59:06;;;;;;;8.98;1.60;;;6.40;99.90;;;;;;5056072;28;20037;-74
2024/02/07 10:01:33;;;;;;;18.50;3.50;;;6.40;99.90;;;;;;5045247;28;20043;-73
2024/02/07 10:04:02;;;;;;;13.15;1.20;;;6.40;99.90;;;;;;5043508;28;20025;-73
2024/02/07 10:06:28;;;;;;;6.78;1.27;;;6.50;99.90;;;;;;5045920;28;20137;-73
2024/02/07 10:08:54;;;;;;;8.45;1.80;;;6.60;99.90;;;;;;5046593;28;20777;-74
2024/02/07 10:11:21;;;;;;;8.85;1.27;;;6.60;99.90;;;;;;5038713;28;20526;-71
2024/02/07 10:13:46;;;;;;;31.08;2.30;;;6.60;99.90;;;;;;5052322;28;20047;-73
2024/02/07 10:16:12;;;;;;;19.45;2.00;;;6.60;99.90;;;;;;5048219;28;20029;-72
2024/02/07 10:18:38;;;;;;;9.77;1.67;;;6.70;99.90;;;;;;5071134;28;20046;-73
2024/02/07 10:21:04;;;;;;;10.45;2.03;;;6.70;99.90;;;;;;5074954;28;20035;-77
2024/02/07 10:23:30;;;;;;;16.48;1.55;;;6.70;99.90;;;;;;5067509;28;20028;-73
2024/02/07 10:25:57;;;;;;;19.80;3.83;;;6.70;99.90;;;;;;5041752;28;20864;-76
2024/02/07 10:28:24;;;;;;;27.27;3.17;;;6.70;99.90;;;;;;5055631;28;20112;-71
2024/02/07 10:30:58;;;;;;;16.10;2.25;;;6.70;99.90;;;;;;5041782;28;20037;-73
2024/02/07 10:33:24;;;;;;;11.32;1.45;;;6.60;99.90;;;;;;5061373;28;20028;-73
2024/02/07 10:36:01;;;;;;;11.13;1.45;;;6.70;99.90;;;;;;5055130;28;20029;-74
2024/02/07 10:38:28;;;;;;;6.68;1.20;;;6.70;99.90;;;;;;5039647;28;20029;-74
2024/02/07 10:40:54;;;;;;;8.93;1.65;;;6.60;99.90;;;;;;5060416;28;20024;-73
2024/02/07 10:43:36;;;;;;;16.88;1.90;;;6.70;99.90;;;;;;5045530;28;20397;-71
2024/02/07 10:46:12;;;;;;;14.10;2.35;;;6.70;99.90;;;;;;5061534;28;20070;-73
2024/02/07 10:48:39;;;;;;;9.48;1.50;;;6.70;99.90;;;;;;5042246;28;20037;-75
2024/02/07 10:51:05;;;;;;;8.50;1.20;;;6.80;99.90;;;;;;5043187;28;20033;-73
2024/02/07 10:53:32;;;;;;;10.05;1.95;;;6.80;99.90;;;;;;5035611;28;20038;-73
2024/02/07 10:55:59;;;;;;;14.98;1.17;;;6.90;99.90;;;;;;5040422;28;20036;-73
2024/02/07 10:58:27;;;;;;;12.70;1.38;;;7.00;99.90;;;;;;5038598;28;20029;-73
2024/02/07 11:00:54;;;;;;;12.60;1.17;;;7.00;99.90;;;;;;5041519;28;20032;-73
2024/02/07 11:03:20;;;;;;;6.75;0.93;;;7.00;99.90;;;;;;5040414;28;20033;-70
2024/02/07 11:05:50;;;;;;;7.38;1.00;;;7.00;99.90;;;;;;5036966;28;20402;-74
2024/02/07 11:08:16;;;;;;;8.43;2.33;;;6.90;99.90;;;;;;5047373;28;20033;-72
2024/02/07 11:10:42;;;;;;;13.15;1.05;;;6.90;99.90;;;;;;5040394;28;20041;-74
2024/02/07 11:13:13;;;;;;;4.47;0.85;;;6.90;99.90;;;;;;5042935;28;20033;-73
2024/02/07 11:15:39;;;;;;;6.63;1.27;;;7.00;99.90;;;;;;5041777;28;20040;-74
2024/02/07 11:18:07;;;;;;;25.95;2.40;;;7.10;99.90;;;;;;5042120;28;20540;-75
2024/02/07 11:20:33;;;;;;;8.73;1.85;;;7.20;99.90;;;;;;5035514;28;20040;-73
2024/02/07 11:23:17;;;;;;;13.57;1.27;;;7.20;99.90;;;;;;5044153;28;20822;-74
2024/02/07 11:25:45;;;;;;;4.93;0.93;;;7.20;99.90;;;;;;5037029;28;20037;-73
2024/02/07 11:28:10;;;;;;;10.68;1.15;;;7.20;99.90;;;;;;5035854;28;20078;-73
2024/02/07 11:30:36;;;;;;;10.77;1.55;;;7.20;99.90;;;;;;5034002;28;20037;-73
2024/02/07 11:33:02;;;;;;;14.60;2.28;;;7.20;99.90;;;;;;5040085;28;20060;-74
2024/02/07 11:35:32;;;;;;;7.82;1.52;;;7.20;99.90;;;;;;5042049;28;20094;-74
2024/02/07 11:38:02;;;;;;;15.20;1.65;;;7.30;99.90;;;;;;5042276;28;20124;-75
2024/02/07 11:40:40;;;;;;;6.20;1.33;;;7.40;99.90;;;;;;5037247;28;20746;-73
2024/02/07 11:43:09;;;;;;;6.60;0.93;;;7.40;99.90;;;;;;5043705;28;20044;-74
2024/02/07 11:45:38;;;;;;;9.77;1.27;;;7.60;99.90;;;;;;5041259;28;20539;-74
2024/02/07 11:48:17;;;;;;;11.38;1.23;;;7.60;99.90;;;;;;5041833;28;20072;-73
2024/02/07 11:50:43;;;;;;;9.02;1.05;;;7.60;99.90;;;;;;5040464;28;20043;-74
2024/02/07 11:53:18;;;;;;;6.88;0.95;;;7.60;99.90;;;;;;5041129;28;20033;-74
2024/02/07 11:55:46;;;;;;;11.60;1.63;;;7.50;99.90;;;;;;5039561;28;20033;-73
2024/02/07 11:58:14;;;;;;;10.43;1.00;;;7.50;99.90;;;;;;5040683;28;20045;-71
2024/02/07 12:00:41;;;;;;;12.73;1.70;;;7.40;99.90;;;;;;5042908;28;20047;-74
2024/02/07 12:03:15;;;;;;;15.15;1.83;;;7.40;99.90;;;;;;5042108;28;20688;-74
2024/02/07 12:05:44;;;;;;;9.60;1.00;;;7.40;99.90;;;;;;5039127;28;20025;-73
2024/02/07 12:08:13;;;;;;;8.40;0.93;;;7.40;99.90;;;;;;5033179;28;20041;-74
2024/02/07 12:10:39;;;;;;;6.35;1.38;;;7.50;99.90;;;;;;5041111;28;20291;-73
2024/02/07 12:13:04;;;;;;;9.85;2.17;;;7.50;99.90;;;;;;5045365;28;20037;-72
2024/02/07 12:15:31;;;;;;;6.28;1.40;;;7.40;99.90;;;;;;5037171;28;20823;-74
2024/02/07 12:17:57;;;;;;;9.63;2.28;;;7.40;99.90;;;;;;5041841;28;20037;-73
2024/02/07 12:20:29;;;;;;;9.98;1.65;;;7.40;99.90;;;;;;5037961;28;20116;-73
2024/02/07 12:23:01;;;;;;;8.40;1.23;;;7.30;99.90;;;;;;5044166;28;20025;-73
2024/02/07 12:25:27;;;;;;;4.55;0.73;;;7.30;99.90;;;;;;5041437;28;20037;-73
2024/02/07 12:27:53;;;;;;;7.78;2.05;;;7.30;99.90;;;;;;5039674;28;20037;-75
2024/02/07 12:30:19;;;;;;;7.35;1.75;;;7.40;99.90;;;;;;5036260;28;20118;-75
2024/02/07 12:32:44;;;;;;;4.53;0.80;;;7.40;99.90;;;;;;5034112;28;20502;-75
2024/02/07 12:35:11;;;;;;;6.85;0.98;;;7.40;99.90;;;;;;5037438;28;20044;-76
2024/02/07 12:37:38;;;;;;;12.02;1.35;;;7.40;99.90;;;;;;5033434;28;20032;-73
2024/02/07 12:40:12;;;;;;;6.63;2.35;;;7.50;99.90;;;;;;5039086;28;20033;-71
2024/02/07 12:42:37;;;;;;;8.93;1.00;;;7.50;99.90;;;;;;5040709;28;20025;-73
2024/02/07 12:45:03;;;;;;;11.13;2.80;;;7.50;99.90;;;;;;5045678;28;20040;-73
2024/02/07 12:47:28;;;;;;;6.05;1.17;;;7.60;99.90;;;;;;5046998;28;20041;-73
2024/02/07 12:49:54;;;;;;;7.90;2.05;;;7.60;99.90;;;;;;5042592;28;20050;-74
2024/02/07 12:52:20;;;;;;;7.70;0.93;;;7.60;99.90;;;;;;5041760;28;20025;-72
2024/02/07 12:54:46;;;;;;;5.75;0.93;;;7.70;99.90;;;;;;5039341;28;20359;-73
2024/02/07 12:57:23;;;;;;;4.85;1.00;;;7.70;99.90;;;;;;5035802;28;20035;-80
2024/02/07 12:59:49;;;;;;;6.53;0.57;;;7.80;99.90;;;;;;5044539;28;20481;-76
2024/02/07 13:02:15;;;;;;;6.25;0.82;;;7.90;99.90;;;;;;5041818;28;20037;-73
2024/02/07 13:04:41;;;;;;;3.85;0.60;;;7.90;99.90;;;;;;5037503;28;20052;-73
2024/02/07 13:07:09;;;;;;;7.18;0.85;;;7.90;99.90;;;;;;5040759;28;20033;-74
2024/02/07 13:09:36;;;;;;;11.75;1.65;;;8.00;99.90;;;;;;5027055;28;20112;-73
2024/02/07 13:12:02;;;;;;;7.78;1.42;;;8.00;99.90;;;;;;5037912;28;20033;-73
2024/02/07 13:14:27;;;;;;;7.10;1.08;;;8.10;99.90;;;;;;5041790;28;20033;-73
2024/02/07 13:16:53;;;;;;;6.18;1.33;;;8.20;99.90;;;;;;5045296;28;20040;-75
2024/02/07 13:19:19;;;;;;;12.82;1.17;;;8.10;99.90;;;;;;5041559;28;20507;-77
2024/02/07 13:21:46;;;;;;;5.63;0.98;;;8.20;99.90;;;;;;5037703;28;20028;-74
2024/02/07 13:24:16;;;;;;;12.90;0.77;;;8.20;99.90;;;;;;5041600;28;20033;-75
2024/02/07 13:26:42;;;;;;;4.85;1.02;;;8.20;99.90;;;;;;5034493;28;20036;-74
2024/02/07 13:29:08;;;;;;;12.30;2.38;;;8.20;99.90;;;;;;5037084;28;20175;-74
2024/02/07 13:31:35;;;;;;;3.22;0.73;;;8.30;99.90;;;;;;5042017;28;20045;-73
2024/02/07 13:34:00;;;;;;;5.15;1.15;;;8.20;99.90;;;;;;5044777;28;20027;-73
2024/02/07 13:36:26;;;;;;;4.60;0.70;;;8.20;99.90;;;;;;5050624;28;20100;-73
2024/02/07 13:38:51;;;;;;;7.97;1.40;;;8.10;99.90;;;;;;5044805;28;20087;-73
2024/02/07 13:41:19;;;;;;;2.83;0.85;;;8.20;99.90;;;;;;5030063;28;20120;-74
2024/02/07 13:43:46;;;;;;;4.85;1.15;;;8.10;99.90;;;;;;5046966;28;20044;-73
2024/02/07 13:46:11;;;;;;;7.72;0.70;;;8.10;99.90;;;;;;5027957;28;20037;-75
2024/02/07 13:48:38;;;;;;;4.57;0.70;;;8.20;99.90;;;;;;5043276;28;20055;-75
2024/02/07 13:51:05;;;;;;;4.00;0.82;;;8.20;99.90;;;;;;5029215;28;20068;-74
2024/02/07 13:53:30;;;;;;;16.08;2.47;;;8.20;99.90;;;;;;5027727;28;20032;-78
2024/02/07 13:55:57;;;;;;;5.70;0.85;;;8.20;99.90;;;;;;5028592;28;20033;-76
2024/02/07 13:58:24;;;;;;;4.55;0.93;;;8.10;99.90;;;;;;5036281;28;20481;-73